createdAt,value
2023-04-13T00:02:16.658Z,22.10
2023-04-13T00:04:44.354Z,23.15
2023-04-13T00:07:14.999Z,21.33
2023-04-13T00:09:43.108Z,21.00
2023-04-13T00:12:11.173Z,20.77
2023-04-13T00:14:58.382Z,21.80
2023-04-13T00:17:47.634Z,21.45
2023-04-13T00:20:15.341Z,21.70
2023-04-13T00:22:43.425Z,22.50
2023-04-13T00:25:14.450Z,21.50
2023-04-13T00:27:43.579Z,20.73
2023-04-13T00:30:16.240Z,21.35
2023-04-13T00:32:45.666Z,20.48
2023-04-13T00:35:19.916Z,20.35
2023-04-13T00:37:50.001Z,21.00
2023-04-13T00:40:18.410Z,20.30
2023-04-13T00:42:50.756Z,19.80
2023-04-13T00:45:18.947Z,19.45
2023-04-13T00:47:48.782Z,21.08
2023-04-13T00:50:20.830Z,19.85
2023-04-13T00:52:48.880Z,22.35
2023-04-13T00:55:21.528Z,20.98
2023-04-13T00:57:53.062Z,18.20
2023-04-13T01:00:22.092Z,19.45
2023-04-13T01:02:50.845Z,18.80
2023-04-13T01:05:19.807Z,17.83
2023-04-13T01:07:53.746Z,18.50
2023-04-13T01:10:42.350Z,17.20
2023-04-13T01:13:20.706Z,16.30
2023-04-13T01:16:15.931Z,17.15
2023-04-13T01:18:49.233Z,17.00
2023-04-13T01:21:22.006Z,18.50
2023-04-13T01:23:49.296Z,15.85
2023-04-13T01:26:17.512Z,15.75
2023-04-13T01:28:47.483Z,17.60
2023-04-13T01:31:17.929Z,17.90
2023-04-13T01:33:46.870Z,18.50
2023-04-13T01:36:14.687Z,21.13
2023-04-13T01:38:42.389Z,18.88
2023-04-13T01:41:12.053Z,18.60
2023-04-13T01:43:45.283Z,18.40
2023-04-13T01:46:14.750Z,20.73
2023-04-13T01:49:11.099Z,20.00
2023-04-13T01:52:12.134Z,19.98
2023-04-13T01:54:44.346Z,21.63
2023-04-13T01:57:14.372Z,20.25
2023-04-13T01:59:41.704Z,20.13
2023-04-13T02:02:16.996Z,20.77
2023-04-13T02:04:44.416Z,19.92
2023-04-13T02:07:12.567Z,20.38
2023-04-13T02:09:45.956Z,22.65
2023-04-13T02:12:13.550Z,22.92
2023-04-13T02:14:40.756Z,23.13
2023-04-13T02:17:08.536Z,23.00
2023-04-13T02:19:35.702Z,22.40
2023-04-13T02:22:03.996Z,21.73
2023-04-13T02:24:32.971Z,22.63
2023-04-13T02:27:02.127Z,22.52
2023-04-13T02:29:29.821Z,21.60
2023-04-13T02:31:58.019Z,23.83
2023-04-13T02:34:26.227Z,21.98
2023-04-13T02:36:53.778Z,22.27
2023-04-13T02:39:21.083Z,22.02
2023-04-13T02:41:49.816Z,21.23
2023-04-13T02:44:22.249Z,21.40
2023-04-13T02:46:57.225Z,20.88
2023-04-13T02:49:25.181Z,19.02
2023-04-13T02:51:58.436Z,20.45
2023-04-13T02:54:38.387Z,20.17
2023-04-13T02:57:05.956Z,19.63
2023-04-13T02:59:36.839Z,16.65
2023-04-13T03:02:07.378Z,17.95
2023-04-13T03:04:34.899Z,17.25
2023-04-13T03:07:05.248Z,17.65
2023-04-13T03:09:34.517Z,18.25
2023-04-13T03:12:02.922Z,17.45
2023-04-13T03:14:33.268Z,17.15
2023-04-13T03:17:07.548Z,17.40
2023-04-13T03:19:38.941Z,17.88
2023-04-13T03:22:08.340Z,16.23
2023-04-13T03:24:40.757Z,16.25
2023-04-13T03:27:09.955Z,15.43
2023-04-13T03:29:45.456Z,15.45
2023-04-13T03:32:20.113Z,17.15
2023-04-13T03:34:50.728Z,16.93
2023-04-13T03:37:19.105Z,16.67
2023-04-13T03:39:46.881Z,16.23
2023-04-13T03:42:18.664Z,16.20
2023-04-13T03:44:53.100Z,15.95
2023-04-13T03:47:20.894Z,15.90
2023-04-13T03:49:48.260Z,15.02
2023-04-13T03:52:16.375Z,14.90
2023-04-13T03:54:51.348Z,14.30
2023-04-13T03:57:22.701Z,15.95
2023-04-13T03:59:50.814Z,15.85
2023-04-13T04:02:27.468Z,15.65
2023-04-13T04:04:55.174Z,15.85
2023-04-13T04:07:23.737Z,17.42
2023-04-13T04:09:51.675Z,16.42
2023-04-13T04:12:22.994Z,17.33
2023-04-13T04:14:50.899Z,16.10
2023-04-13T04:17:24.062Z,15.60
2023-04-13T04:19:51.487Z,17.85
2023-04-13T04:22:30.478Z,16.40
2023-04-13T04:25:02.047Z,17.30
2023-04-13T04:27:38.471Z,16.02
2023-04-13T04:30:10.990Z,16.88
2023-04-13T04:32:40.652Z,17.20
2023-04-13T04:35:14.396Z,15.98
2023-04-13T04:37:49.801Z,17.48
2023-04-13T04:40:18.780Z,17.30
2023-04-13T04:42:46.561Z,17.20
2023-04-13T04:45:23.590Z,17.83
2023-04-13T04:47:53.663Z,17.52
2023-04-13T04:50:26.070Z,16.63
2023-04-13T04:53:07.530Z,18.02
2023-04-13T04:55:34.961Z,18.13
2023-04-13T04:58:02.949Z,17.13
2023-04-13T05:00:32.174Z,17.08
2023-04-13T05:03:09.969Z,17.10
2023-04-13T05:05:41.148Z,16.23
2023-04-13T05:08:13.308Z,15.95
2023-04-13T05:10:46.687Z,16.52
2023-04-13T05:13:15.195Z,16.30
2023-04-13T05:15:49.109Z,15.65
2023-04-13T05:18:19.140Z,16.52
2023-04-13T05:20:46.579Z,15.95
2023-04-13T05:23:14.124Z,17.67
2023-04-13T05:25:48.987Z,15.95
2023-04-13T05:28:21.920Z,16.20
2023-04-13T05:30:49.835Z,15.57
2023-04-13T05:33:18.161Z,16.35
2023-04-13T05:35:48.587Z,17.95
2023-04-13T05:38:16.943Z,17.75
2023-04-13T05:40:45.199Z,18.42
2023-04-13T05:43:13.527Z,18.05
2023-04-13T05:45:47.129Z,17.90
2023-04-13T05:48:15.982Z,18.05
2023-04-13T05:50:44.912Z,17.73
2023-04-13T05:53:14.067Z,16.77
2023-04-13T05:55:48.490Z,18.15
2023-04-13T05:58:19.046Z,17.05
2023-04-13T06:00:49.094Z,16.83
2023-04-13T06:03:27.535Z,17.33
2023-04-13T06:05:55.265Z,18.60
2023-04-13T06:08:22.924Z,17.65
2023-04-13T06:10:51.800Z,15.95
2023-04-13T06:13:19.558Z,15.43
2023-04-13T06:15:46.939Z,15.20
2023-04-13T06:18:14.502Z,15.23
2023-04-13T06:20:41.742Z,15.30
2023-04-13T06:23:09.561Z,15.55
2023-04-13T06:25:36.836Z,17.98
2023-04-13T06:28:06.174Z,17.85
2023-04-13T06:30:37.363Z,16.30
2023-04-13T06:33:09.674Z,16.98
2023-04-13T06:35:38.699Z,16.42
2023-04-13T06:38:07.441Z,17.52
2023-04-13T06:40:46.924Z,14.98
2023-04-13T06:43:26.383Z,15.52
2023-04-13T06:46:19.576Z,16.17
2023-04-13T06:48:50.591Z,15.38
2023-04-13T06:53:49.241Z,17.20
2023-04-13T06:56:16.603Z,17.27
2023-04-13T06:58:45.568Z,16.98
2023-04-13T07:01:13.448Z,16.95
2023-04-13T07:03:41.798Z,17.17
2023-04-13T07:06:09.840Z,20.10
2023-04-13T07:08:38.071Z,19.73
2023-04-13T07:11:06.827Z,18.75
2023-04-13T07:13:38.388Z,17.40
2023-04-13T07:16:09.057Z,17.02
2023-04-13T07:18:38.947Z,18.27
2023-04-13T07:21:07.299Z,17.90
2023-04-13T07:23:54.480Z,17.55
2023-04-13T07:26:22.726Z,17.10
2023-04-13T07:28:50.297Z,16.10
2023-04-13T07:31:18.490Z,16.30
2023-04-13T07:33:49.003Z,16.67
2023-04-13T07:36:20.971Z,16.42
2023-04-13T07:38:51.492Z,17.17
2023-04-13T07:41:22.639Z,15.88
2023-04-13T07:43:53.978Z,16.98
2023-04-13T07:46:27.254Z,15.25
2023-04-13T07:48:56.414Z,15.02
2023-04-13T07:51:28.585Z,14.93
2023-04-13T07:53:56.459Z,15.95
2023-04-13T07:56:26.375Z,15.68
2023-04-13T07:58:54.577Z,15.23
2023-04-13T08:01:22.142Z,14.57
2023-04-13T08:03:50.689Z,14.63
2023-04-13T08:06:23.333Z,14.77
2023-04-13T08:08:52.817Z,15.20
2023-04-13T08:11:20.598Z,13.73
2023-04-13T08:13:52.685Z,15.13
2023-04-13T08:16:20.143Z,14.27
2023-04-13T08:18:47.999Z,14.40
2023-04-13T08:21:15.587Z,15.00
2023-04-13T08:23:46.443Z,14.17
2023-04-13T08:26:18.853Z,13.80
2023-04-13T08:28:50.385Z,13.90
2023-04-13T08:31:17.719Z,13.50
2023-04-13T08:33:52.356Z,12.93
2023-04-13T08:36:19.573Z,14.40
2023-04-13T08:38:52.372Z,13.43
2023-04-13T08:41:22.055Z,12.20
2023-04-13T08:43:52.777Z,12.38
2023-04-13T08:46:23.800Z,13.02
2023-04-13T08:48:55.048Z,13.38
2023-04-13T08:51:31.403Z,14.65
2023-04-13T08:53:59.544Z,14.90
2023-04-13T08:56:44.669Z,12.73
2023-04-13T08:59:17.699Z,13.15
2023-04-13T09:01:48.900Z,11.93
2023-04-13T09:04:20.833Z,14.18
2023-04-13T09:06:51.906Z,14.18
2023-04-13T09:09:21.434Z,14.00
2023-04-13T09:11:51.047Z,12.93
2023-04-13T09:14:22.463Z,12.00
2023-04-13T09:16:52.109Z,10.57
2023-04-13T09:19:33.194Z,11.25
2023-04-13T09:24:41.122Z,11.80
2023-04-13T09:27:19.155Z,12.70
2023-04-13T09:29:54.938Z,12.38
2023-04-13T09:32:22.971Z,12.30
2023-04-13T09:35:05.159Z,11.60
2023-04-13T09:40:23.632Z,11.00
2023-04-13T09:43:02.356Z,10.43
2023-04-13T09:45:46.474Z,9.77
2023-04-13T09:48:18.684Z,9.52
2023-04-13T09:50:46.712Z,9.88
2023-04-13T09:53:14.018Z,10.45
2023-04-13T09:55:41.912Z,10.65
2023-04-13T09:58:12.798Z,9.93
2023-04-13T10:00:45.661Z,9.35
2023-04-13T10:03:16.394Z,9.13
2023-04-13T10:05:58.717Z,8.00
2023-04-13T10:08:37.528Z,9.95
2023-04-13T10:11:11.978Z,9.40
2023-04-13T10:14:01.208Z,9.25
2023-04-13T10:16:38.671Z,7.75
2023-04-13T10:19:21.724Z,6.90
2023-04-13T10:21:51.914Z,6.40
2023-04-13T10:24:20.376Z,6.20
2023-04-13T10:26:48.643Z,7.25
2023-04-13T10:29:16.945Z,7.40
2023-04-13T10:31:47.209Z,8.23
2023-04-13T10:34:28.309Z,8.95
2023-04-13T10:36:58.728Z,7.95
2023-04-13T10:39:28.176Z,9.23
2023-04-13T10:42:03.429Z,8.68
2023-04-13T10:44:50.891Z,8.93
2023-04-13T10:47:20.754Z,8.90
2023-04-13T10:49:49.445Z,8.85
2023-04-13T10:52:17.552Z,7.88
2023-04-13T10:54:45.360Z,7.45
2023-04-13T10:57:13.540Z,8.05
2023-04-13T11:02:16.594Z,7.68
2023-04-13T11:04:47.844Z,7.78
2023-04-13T11:07:23.563Z,6.97
2023-04-13T11:09:51.085Z,7.90
2023-04-13T11:12:19.401Z,7.35
2023-04-13T11:14:51.085Z,8.35
2023-04-13T11:17:20.053Z,8.13
2023-04-13T11:19:55.388Z,8.30
2023-04-13T11:22:28.000Z,7.85
2023-04-13T11:25:06.952Z,7.38
2023-04-13T11:27:34.765Z,8.10
2023-04-13T11:30:06.771Z,8.07
2023-04-13T11:32:34.950Z,7.55
2023-04-13T11:35:15.403Z,8.20
2023-04-13T11:37:49.556Z,7.55
2023-04-13T11:40:21.507Z,7.68
2023-04-13T11:42:51.803Z,7.53
2023-04-13T11:45:21.885Z,7.82
2023-04-13T11:47:54.272Z,7.63
2023-04-13T11:50:22.587Z,7.18
2023-04-13T11:52:52.509Z,7.30
2023-04-13T11:55:23.594Z,8.68
2023-04-13T11:57:53.591Z,11.48
2023-04-13T12:00:26.819Z,11.90
2023-04-13T12:05:29.429Z,14.38
2023-04-13T12:07:58.997Z,17.90
2023-04-13T12:10:36.862Z,17.80
2023-04-13T12:16:05.399Z,16.58
2023-04-13T12:18:49.844Z,16.92
2023-04-13T12:21:20.395Z,17.70
2023-04-13T12:23:56.363Z,15.02
2023-04-13T12:27:16.497Z,18.65
2023-04-13T12:29:22.435Z,17.60
2023-04-13T12:31:49.724Z,19.42
2023-04-13T12:34:17.217Z,20.02
2023-04-13T12:36:44.482Z,17.85
2023-04-13T12:39:12.062Z,18.23
2023-04-13T12:41:39.272Z,19.35
2023-04-13T12:44:07.097Z,18.65
2023-04-13T12:46:34.455Z,19.98
2023-04-13T12:49:02.255Z,18.20
2023-04-13T12:51:29.826Z,21.40
2023-04-13T12:53:57.442Z,19.27
2023-04-13T12:56:24.792Z,19.17
2023-04-13T12:58:52.407Z,19.75
2023-04-13T13:01:19.782Z,22.27
2023-04-13T13:03:47.381Z,21.55
2023-04-13T13:06:14.750Z,21.83
2023-04-13T13:08:42.323Z,20.10
2023-04-13T13:11:09.607Z,18.30
2023-04-13T13:13:37.361Z,17.95
2023-04-13T13:16:04.894Z,18.42
2023-04-13T13:18:46.650Z,22.35
2023-04-13T13:21:18.146Z,20.35
2023-04-13T13:23:46.863Z,19.33
2023-04-13T13:28:45.795Z,20.98
2023-04-13T13:31:13.358Z,20.23
2023-04-13T13:33:41.024Z,16.67
2023-04-13T13:36:08.388Z,16.38
2023-04-13T13:38:36.896Z,15.30
2023-04-13T13:41:04.374Z,16.83
2023-04-13T13:43:32.423Z,16.20
2023-04-13T13:45:59.698Z,16.27
2023-04-13T13:48:27.997Z,16.80
2023-04-13T13:51:05.615Z,17.80
2023-04-13T13:53:35.089Z,17.45
2023-04-13T13:56:06.102Z,17.48
2023-04-13T13:58:33.663Z,17.45
2023-04-13T14:01:00.979Z,16.95
2023-04-13T14:03:28.751Z,17.15
2023-04-13T14:05:56.327Z,15.57
2023-04-13T14:08:23.789Z,14.77
2023-04-13T14:10:51.259Z,16.58
2023-04-13T14:13:18.738Z,15.98
2023-04-13T14:15:46.218Z,16.23
2023-04-13T14:18:13.892Z,19.00
2023-04-13T14:20:41.427Z,13.00
2023-04-13T14:23:09.893Z,13.07
2023-04-13T14:25:39.748Z,14.55
2023-04-13T14:28:09.182Z,11.45
2023-04-13T14:30:37.230Z,11.38
2023-04-13T14:33:06.217Z,11.85
2023-04-13T14:35:33.924Z,11.65
2023-04-13T14:38:01.948Z,11.43
2023-04-13T14:40:29.519Z,10.73
2023-04-13T14:42:57.072Z,9.25
2023-04-13T14:45:25.358Z,11.50
2023-04-13T14:47:54.166Z,14.00
2023-04-13T14:50:21.705Z,12.05
2023-04-13T14:52:50.269Z,11.27
2023-04-13T14:55:17.983Z,11.45
2023-04-13T14:57:46.053Z,9.63
2023-04-13T15:00:18.207Z,11.40
2023-04-13T15:02:46.092Z,10.65
2023-04-13T15:05:13.552Z,10.80
2023-04-13T15:07:44.636Z,9.60
2023-04-13T15:10:12.746Z,10.20
2023-04-13T15:12:41.455Z,13.30
2023-04-13T15:15:09.915Z,11.05
2023-04-13T15:17:37.493Z,10.23
2023-04-13T15:20:07.562Z,10.85
2023-04-13T15:22:36.324Z,10.82
2023-04-13T15:25:04.616Z,10.52
2023-04-13T15:27:32.265Z,9.13
2023-04-13T15:30:03.839Z,8.82
2023-04-13T15:32:34.138Z,8.93
2023-04-13T15:35:01.671Z,8.60
2023-04-13T15:37:29.294Z,9.55
2023-04-13T15:39:56.862Z,9.02
2023-04-13T15:42:26.121Z,8.73
2023-04-13T15:44:54.828Z,8.38
2023-04-13T15:47:22.991Z,7.65
2023-04-13T15:49:50.447Z,7.72
2023-04-13T15:52:18.024Z,7.75
2023-04-13T15:54:45.330Z,6.32
2023-04-13T15:57:12.871Z,7.18
2023-04-13T15:59:40.150Z,7.63
2023-04-13T16:02:07.838Z,7.25
2023-04-13T16:04:35.521Z,7.20
2023-04-13T16:07:12.828Z,7.95
2023-04-13T16:09:43.932Z,7.25
2023-04-13T16:12:11.877Z,7.28
2023-04-13T16:14:41.969Z,7.95
2023-04-13T16:17:10.563Z,8.23
2023-04-13T16:19:38.275Z,8.93
2023-04-13T16:22:06.095Z,8.35
2023-04-13T16:24:33.734Z,8.50
2023-04-13T16:27:02.324Z,8.80
2023-04-13T16:29:29.861Z,8.07
2023-04-13T16:31:57.342Z,8.35
2023-04-13T16:34:26.616Z,7.90
2023-04-13T16:36:54.674Z,8.00
2023-04-13T16:39:22.497Z,8.43
2023-04-13T16:41:50.351Z,8.88
2023-04-13T16:44:17.618Z,10.05
2023-04-13T16:46:45.159Z,9.68
2023-04-13T16:49:12.622Z,9.98
2023-04-13T16:51:40.188Z,9.15
2023-04-13T16:54:07.696Z,9.18
2023-04-13T16:56:35.368Z,8.85
2023-04-13T16:59:03.303Z,9.13
2023-04-13T17:01:31.651Z,8.18
2023-04-13T17:03:59.065Z,7.97
2023-04-13T17:06:27.413Z,7.53
2023-04-13T17:08:54.740Z,6.63
2023-04-13T17:11:23.292Z,6.70
2023-04-13T17:13:51.501Z,6.93
2023-04-13T17:16:19.424Z,6.13
2023-04-13T17:18:46.656Z,6.78
2023-04-13T17:21:14.531Z,6.47
2023-04-13T17:23:42.004Z,7.50
2023-04-13T17:26:09.773Z,7.63
2023-04-13T17:28:37.073Z,9.50
2023-04-13T17:31:05.938Z,11.18
2023-04-13T17:33:33.740Z,13.48
2023-04-13T17:36:01.519Z,12.88
2023-04-13T17:38:28.784Z,13.68
2023-04-13T17:40:56.505Z,13.95
2023-04-13T17:43:23.789Z,13.10
2023-04-13T17:45:51.429Z,12.48
2023-04-13T17:48:18.767Z,11.68
2023-04-13T17:50:46.554Z,10.95
2023-04-13T17:53:13.911Z,10.32
2023-04-13T17:55:41.568Z,9.63
2023-04-13T17:58:10.784Z,9.20
2023-04-13T18:00:38.428Z,8.70
2023-04-13T18:03:06.281Z,7.47
2023-04-13T18:05:33.892Z,8.40
2023-04-13T18:08:01.171Z,8.02
2023-04-13T18:10:28.840Z,7.60
2023-04-13T18:12:59.794Z,7.88
2023-04-13T18:15:27.957Z,6.88
2023-04-13T18:17:55.302Z,7.97
2023-04-13T18:20:23.114Z,6.95
2023-04-13T18:22:50.428Z,7.43
2023-04-13T18:25:18.122Z,6.88
2023-04-13T18:27:45.529Z,7.10
2023-04-13T18:30:13.915Z,7.30
2023-04-13T18:32:41.485Z,7.95
2023-04-13T18:35:10.260Z,7.78
2023-04-13T18:37:40.988Z,7.07
2023-04-13T18:40:09.434Z,6.88
2023-04-13T18:42:39.988Z,7.50
2023-04-13T18:45:08.318Z,6.97
2023-04-13T18:47:36.027Z,7.22
2023-04-13T18:50:05.970Z,7.22
2023-04-13T18:52:33.759Z,6.60
2023-04-13T18:55:01.437Z,7.60
2023-04-13T18:57:31.109Z,7.30
2023-04-13T18:59:58.729Z,7.68
2023-04-13T19:02:26.284Z,6.90
2023-04-13T19:04:54.004Z,7.28
2023-04-13T19:07:21.245Z,7.63
2023-04-13T19:09:48.875Z,7.63
2023-04-13T19:12:16.155Z,7.05
2023-04-13T19:14:43.774Z,6.90
2023-04-13T19:17:11.070Z,7.32
2023-04-13T19:19:38.579Z,7.05
2023-04-13T19:22:06.956Z,7.35
2023-04-13T19:24:34.578Z,8.02
2023-04-13T19:27:01.858Z,7.60
2023-04-13T19:29:30.403Z,8.07
2023-04-13T19:31:58.391Z,7.70
2023-04-13T19:34:26.344Z,7.82
2023-04-13T19:36:53.816Z,7.95
2023-04-13T19:39:21.471Z,8.05
2023-04-13T19:41:48.858Z,8.32
2023-04-13T19:44:17.274Z,8.32
2023-04-13T19:46:44.617Z,8.23
2023-04-13T19:49:13.726Z,7.60
2023-04-13T19:51:41.214Z,7.45
2023-04-13T19:54:09.086Z,7.97
2023-04-13T19:56:36.557Z,8.80
2023-04-13T19:59:05.593Z,9.57
2023-04-13T20:01:34.325Z,9.95
2023-04-13T20:04:06.877Z,10.98
2023-04-13T20:06:34.880Z,10.57
2023-04-13T20:09:09.349Z,11.07
2023-04-13T20:11:36.959Z,11.45
2023-04-13T20:14:05.519Z,11.68
2023-04-13T20:16:33.339Z,11.27
2023-04-13T20:19:01.473Z,11.82
2023-04-13T20:21:31.206Z,11.35
2023-04-13T20:24:00.048Z,11.60
2023-04-13T20:26:29.942Z,10.40
2023-04-13T20:28:59.100Z,10.18
2023-04-13T20:31:28.336Z,10.38
2023-04-13T20:33:56.641Z,10.88
2023-04-13T20:36:25.725Z,10.07
2023-04-13T20:38:54.454Z,10.38
2023-04-13T20:41:22.048Z,10.07
2023-04-13T20:43:50.877Z,10.10
2023-04-13T20:46:18.388Z,10.05
2023-04-13T20:48:51.395Z,10.02
2023-04-13T20:51:22.811Z,11.02
2023-04-13T20:53:50.405Z,9.60
2023-04-13T20:56:19.175Z,9.15
2023-04-13T20:58:47.453Z,8.95
2023-04-13T21:01:15.518Z,8.82
2023-04-13T21:03:43.618Z,8.50
2023-04-13T21:06:11.132Z,8.95
2023-04-13T21:08:38.811Z,9.30
2023-04-13T21:11:06.419Z,8.90
2023-04-13T21:13:33.996Z,8.02
2023-04-13T21:16:01.403Z,8.88
2023-04-13T21:18:29.063Z,9.48
2023-04-13T21:20:56.770Z,9.07
2023-04-13T21:23:24.416Z,10.27
2023-04-13T21:25:51.634Z,9.15
2023-04-13T21:28:19.160Z,10.13
2023-04-13T21:30:46.452Z,9.90
2023-04-13T21:33:14.006Z,9.48
2023-04-13T21:35:41.337Z,9.82
2023-04-13T21:38:09.125Z,9.35
2023-04-13T21:40:36.408Z,8.65
2023-04-13T21:43:03.969Z,8.95
2023-04-13T21:45:31.874Z,9.57
2023-04-13T21:47:59.532Z,8.88
2023-04-13T21:50:26.824Z,8.50
2023-04-13T21:52:54.370Z,9.20
2023-04-13T21:55:21.833Z,8.77
2023-04-13T21:57:49.844Z,8.85
2023-04-13T22:00:18.105Z,9.15
2023-04-13T22:02:45.821Z,9.43
2023-04-13T22:05:13.418Z,8.88
2023-04-13T22:07:43.285Z,8.57
2023-04-13T22:10:11.562Z,8.60
2023-04-13T22:12:39.156Z,8.90
2023-04-13T22:15:07.032Z,9.15
2023-04-13T22:17:34.792Z,8.80
2023-04-13T22:20:02.462Z,8.68
2023-04-13T22:22:30.086Z,9.05
2023-04-13T22:24:57.461Z,8.75
2023-04-13T22:27:24.984Z,9.38
2023-04-13T22:29:54.801Z,9.38
2023-04-13T22:32:22.402Z,9.50
2023-04-13T22:34:49.968Z,9.63
2023-04-13T22:37:17.764Z,10.50
2023-04-13T22:39:45.186Z,10.07
2023-04-13T22:42:12.896Z,10.05
2023-04-13T22:44:40.153Z,9.52
2023-04-13T22:47:07.684Z,9.50
2023-04-13T22:49:34.954Z,9.88
2023-04-13T22:52:02.645Z,10.05
2023-04-13T22:54:30.114Z,10.45
2023-04-13T22:56:57.606Z,9.40
2023-04-13T22:59:25.568Z,10.43
2023-04-13T23:01:53.265Z,10.40
2023-04-13T23:04:20.843Z,9.40
2023-04-13T23:06:49.947Z,10.45
2023-04-13T23:09:17.131Z,10.73
2023-04-13T23:11:44.616Z,10.13
2023-04-13T23:14:12.505Z,10.57
2023-04-13T23:16:40.162Z,10.85
2023-04-13T23:19:07.505Z,9.98
2023-04-13T23:21:35.877Z,10.50
2023-04-13T23:24:03.187Z,10.30
2023-04-13T23:26:30.985Z,10.88
2023-04-13T23:28:58.405Z,10.88
2023-04-13T23:31:26.185Z,9.98
2023-04-13T23:33:54.956Z,10.60
2023-04-13T23:36:22.755Z,10.38
2023-04-13T23:38:50.122Z,10.55
2023-04-13T23:41:17.734Z,11.02
2023-04-13T23:43:45.035Z,9.93
2023-04-13T23:46:13.173Z,10.55
2023-04-13T23:48:40.647Z,10.98
2023-04-13T23:51:08.225Z,11.77
2023-04-13T23:53:35.769Z,10.90
2023-04-13T23:56:03.469Z,10.75
2023-04-13T23:58:31.017Z,11.15
